Oxford, NC

11:31 PM EST on November 16, 2019 (GMT -0500)
Henderson-Oxford

Weather History for KHNZ - June, 2019

Change the Weather History Date:

Thursday, June 13, 2019

  Actual Average (KTDF) Record (KTDF)
Temperature  
Mean Temperature 66 °F -  
Max Temperature 75 °F 84 °F 96 °F (2002)
Min Temperature 58 °F 59 °F 48 °F (1980)
Cooling Degree Days 2    
Growing Degree Days 16 (Base 50)    
Moisture  
Dew Point 59 °F    
Average Humidity 85    
Maximum Humidity 99    
Minimum Humidity 56    
Precipitation  
Precipitation 0.54 in - - ()
Sea Level Pressure  
Sea Level Pressure 29.87 in    
Wind  
Wind Speed 5 mph ()    
Max Wind Speed 14 mph    
Max Gust Speed 22 mph    
Visibility 8.4 miles    
Events Rain    
Averages and records for this station are not official NWS values.
T = Trace of Precipitation, MM = Missing Value Source: Averaged Metar Reports

Daily Weather History Graph

Daily Weather History Graph

Search for Another Location

Airport or City:

Astronomy

Jun. 13, 2019 Rise Set
Actual Time 5:55 AM EDT 8:32 PM EDT
Civil Twilight 5:25 AM EDT 9:03 PM EDT
Nautical Twilight 4:47 AM EDT 9:40 PM EDT
Astronomical Twilight 4:05 AM EDT 10:23 PM EDT
Moon 4:52 PM EDT (6/13) 3:32 AM EDT (6/13)
Length of Visible Light 15h 37m
Length of Day
14h 36m
Waxing Gibbous, 85% of the Moon is Illuminated
Jun 13
Waxing Gibbous
Jun 17
Full
Jun 25
Last Quarter
Jul 2
New
Jul 9
First Quarter

Hourly Weather History & Observations

Time (EDT) Temp. Dew Point Humidity Pressure Visibility Wind Dir Wind Speed Gust Speed Precip Events Conditions
12:00 AM 61.3 °F 60.6 °F 97% 29.91 in 4.0 mi NE 3.5 mph - N/A Rain Rain
12:20 AM 61.3 °F 60.6 °F 97% 29.90 in 4.0 mi North 4.6 mph - 0.01 in   Drizzle
12:40 AM 61.0 °F 60.3 °F 97% 29.89 in 3.0 mi North 3.5 mph - 0.02 in Rain Heavy Rain
1:00 AM 60.8 °F 59.9 °F 97% 29.87 in 5.0 mi North 5.8 mph - 0.02 in Rain Heavy Rain
1:20 AM 60.4 °F 59.9 °F 98% 29.86 in 3.0 mi NNE 4.6 mph - 0.07 in Rain Heavy Rain
1:40 AM 60.3 °F 59.5 °F 97% 29.85 in 4.0 mi North 4.6 mph - 0.10 in   Drizzle
2:00 AM 60.1 °F 59.4 °F 97% 29.83 in 5.0 mi NNE 4.6 mph - N/A Rain Light Rain
2:20 AM 59.9 °F 59.2 °F 97% 29.82 in 7.0 mi NE 5.8 mph - 0.02 in Rain Light Rain
2:40 AM 59.9 °F 59.2 °F 97% 29.82 in 10.0 mi WNW 4.6 mph - 0.03 in   Light Drizzle
3:00 AM 59.2 °F 58.5 °F 97% 29.84 in 4.0 mi NW 6.9 mph - 0.01 in Rain Rain
3:20 AM 58.5 °F 57.7 °F 97% 29.82 in 3.0 mi NW 5.8 mph - 0.02 in   Light Drizzle
3:40 AM 58.1 °F 57.2 °F 97% 29.82 in 10.0 mi NW 4.6 mph - 0.03 in   Overcast
4:00 AM 58.1 °F 57.2 °F 97% 29.82 in 10.0 mi WNW 3.5 mph - N/A   Overcast
4:20 AM 58.1 °F 57.2 °F 97% 29.81 in 10.0 mi NW 3.5 mph - N/A   Overcast
4:40 AM 58.1 °F 57.2 °F 97% 29.81 in 10.0 mi NW 3.5 mph - N/A   Overcast
5:00 AM 58.1 °F 57.2 °F 97% 29.82 in 10.0 mi Calm Calm - N/A   Overcast
5:20 AM 58.1 °F 57.2 °F 97% 29.82 in 10.0 mi Calm Calm - N/A   Overcast
5:40 AM 58.1 °F 57.4 °F 97% 29.82 in 10.0 mi Calm Calm - N/A   Overcast
6:00 AM 58.5 °F 57.7 °F 97% 29.84 in 3.0 mi West 5.8 mph - N/A   Overcast
6:20 AM 58.5 °F 58.1 °F 99% 29.84 in 0.8 mi West 3.5 mph - N/A   Overcast
6:40 AM 58.6 °F 58.1 °F 98% 29.84 in 1.2 mi West 4.6 mph - N/A   Overcast
7:00 AM 59.0 °F 58.3 °F 97% 29.85 in 1.8 mi WNW 3.5 mph - N/A   Overcast
7:20 AM 58.3 °F 57.6 °F 97% 29.85 in 3.0 mi West 3.5 mph - N/A   Overcast
7:40 AM 58.5 °F 57.7 °F 97% 29.86 in 4.0 mi Calm Calm - N/A   Overcast
8:00 AM 59.0 °F 58.1 °F 97% 29.86 in 10.0 mi West 4.6 mph - N/A   Overcast
8:20 AM 59.0 °F 57.9 °F 96% 29.86 in 10.0 mi West 3.5 mph - N/A   Overcast
8:40 AM 59.4 °F 58.1 °F 96% 29.87 in 10.0 mi West 3.5 mph - N/A   Overcast
9:00 AM 59.9 °F 58.5 °F 95% 29.88 in 10.0 mi West 5.8 mph - N/A   Overcast
9:20 AM 59.9 °F 58.5 °F 95% 29.89 in 10.0 mi WSW 5.8 mph - N/A   Overcast
9:40 AM 60.3 °F 58.8 °F 95% 29.89 in 10.0 mi WSW 5.8 mph - N/A   Overcast
10:00 AM 60.6 °F 58.8 °F 94% 29.88 in 10.0 mi WSW 5.8 mph - N/A   Overcast
10:20 AM 60.8 °F 59.0 °F 94% 29.89 in 10.0 mi WSW 4.6 mph - N/A   Overcast
10:40 AM 61.7 °F 59.5 °F 93% 29.88 in 10.0 mi SW 5.8 mph - N/A   Overcast
11:00 AM 63.7 °F 59.9 °F 87% 29.88 in 10.0 mi WSW 5.8 mph - N/A   Overcast
11:20 AM 65.1 °F 59.7 °F 83% 29.87 in 10.0 mi WSW 6.9 mph - N/A   Overcast
11:40 AM 66.9 °F 59.9 °F 78% 29.88 in 10.0 mi SW 8.1 mph 16.1 mph N/A   Mostly Cloudy
12:00 PM 68.2 °F 60.3 °F 76% 29.88 in 10.0 mi SW 8.1 mph - N/A   Mostly Cloudy
12:20 PM 69.4 °F 61.0 °F 74% 29.88 in 10.0 mi SW 5.8 mph - N/A   Scattered Clouds
12:40 PM 70.3 °F 60.4 °F 71% 29.87 in 10.0 mi SW 5.8 mph - N/A   Scattered Clouds
1:00 PM 71.1 °F 60.3 °F 69% 29.87 in 10.0 mi SSW 8.1 mph - N/A   Scattered Clouds
1:20 PM 72.9 °F 60.1 °F 64% 29.87 in 10.0 mi SW 9.2 mph - N/A   Scattered Clouds
1:40 PM 74.1 °F 60.3 °F 62% 29.86 in 10.0 mi SW 12.7 mph - N/A   Scattered Clouds
2:00 PM 73.6 °F 59.9 °F 62% 29.86 in 10.0 mi SW 9.2 mph 16.1 mph N/A   Scattered Clouds
2:20 PM 75.2 °F 59.2 °F 57% 29.85 in 10.0 mi SW 12.7 mph - N/A   Scattered Clouds
2:40 PM 74.1 °F 59.4 °F 60% 29.85 in 10.0 mi South 8.1 mph - N/A   Scattered Clouds
3:00 PM 75.4 °F 58.6 °F 56% 29.85 in 10.0 mi SSW 8.1 mph 17.3 mph N/A   Clear
3:20 PM 75.2 °F 59.2 °F 57% 29.85 in 10.0 mi SSW 12.7 mph 19.6 mph N/A   Clear
3:40 PM 75.0 °F 59.5 °F 58% 29.84 in 10.0 mi SSW 11.5 mph 18.4 mph N/A   Scattered Clouds
4:00 PM 73.6 °F 59.5 °F 61% 29.84 in 10.0 mi SSW 10.4 mph - N/A   Scattered Clouds
4:20 PM 73.9 °F 59.5 °F 61% 29.84 in 10.0 mi South 10.4 mph - N/A   Scattered Clouds
4:40 PM 73.6 °F 59.5 °F 61% 29.82 in 10.0 mi South 13.8 mph 19.6 mph N/A   Scattered Clouds
5:00 PM 74.3 °F 60.1 °F 61% 29.82 in 10.0 mi SSW 13.8 mph 20.7 mph N/A   Scattered Clouds
5:20 PM 74.3 °F 59.9 °F 61% 29.83 in 10.0 mi SSW 13.8 mph 21.9 mph N/A   Scattered Clouds
5:40 PM 72.9 °F 59.4 °F 62% 29.82 in 10.0 mi South 12.7 mph 18.4 mph N/A   Scattered Clouds
6:00 PM 71.8 °F 58.6 °F 63% 29.84 in 10.0 mi SW 12.7 mph 21.9 mph N/A   Scattered Clouds
6:20 PM 63.0 °F 59.9 °F 90% 29.86 in 1.2 mi West 6.9 mph 18.4 mph 0.07 in Rain Heavy Rain
6:40 PM 63.1 °F 58.8 °F 86% 29.86 in 7.0 mi WSW 9.2 mph - 0.38 in Rain Light Rain
7:00 PM 66.7 °F 62.6 °F 86% 29.87 in 10.0 mi SW 9.2 mph - N/A   Scattered Clouds
7:20 PM 67.1 °F 62.8 °F 86% 29.87 in 10.0 mi SW 6.9 mph - N/A   Clear
7:40 PM 67.5 °F 63.7 °F 88% 29.88 in 10.0 mi SW 5.8 mph - N/A   Clear
8:00 PM 67.3 °F 63.1 °F 87% 29.88 in 10.0 mi SW 4.6 mph - N/A   Clear
8:20 PM 65.3 °F 63.0 °F 92% 29.88 in 10.0 mi SW 3.5 mph - N/A   Clear
8:40 PM 64.6 °F 62.8 °F 94% 29.89 in 10.0 mi WSW 3.5 mph - N/A   Clear
9:00 PM 64.2 °F 61.9 °F 92% 29.90 in 10.0 mi SW 4.6 mph - N/A   Clear
9:20 PM 63.9 °F 61.3 °F 91% 29.91 in 10.0 mi WSW 4.6 mph - N/A   Clear
9:40 PM 64.8 °F 60.6 °F 86% 29.92 in 10.0 mi WSW 4.6 mph - N/A   Clear
10:00 PM 64.2 °F 59.4 °F 84% 29.94 in 10.0 mi WSW 3.5 mph - N/A   Clear
10:20 PM 63.9 °F 56.5 °F 77% 29.95 in 10.0 mi WSW 4.6 mph - N/A   Clear
10:40 PM 62.6 °F 55.4 °F 77% 29.96 in 10.0 mi WSW 3.5 mph - N/A   Clear
11:00 PM 62.2 °F 54.5 °F 76% 29.96 in 10.0 mi Calm Calm - N/A   Clear
11:20 PM 60.1 °F 54.0 °F 80% 29.96 in 10.0 mi WSW 3.5 mph - N/A   Clear
11:40 PM 59.4 °F 53.6 °F 81% 29.97 in 10.0 mi Calm Calm - N/A   Clear